Time;durP1;ratioP1;P1;durP2;ratioP2;P2;SDS_P1;SDS_P2;PMS_P1;PMS_P2;Temp;Humidity;BMP_temperature;BMP_pressure;BME280_temperature;BME280_humidity;BME280_pressure;Samples;Min_cycle;Max_cycle;Signal;HPM_P1;HPM_P2
2023/12/31 00:02:04;;;;;;;7.45;3.42;;;;;;;3.91;100.00;98403.50;5064242;28;20020;-78
2023/12/31 00:04:30;;;;;;;7.55;3.67;;;;;;;3.62;100.00;98351.38;5081066;28;20054;-78
2023/12/31 00:06:55;;;;;;;9.23;3.00;;;;;;;3.82;100.00;98383.09;5073125;28;20081;-78
2023/12/31 00:09:20;;;;;;;6.63;3.65;;;;;;;3.86;100.00;98381.75;5070641;28;20178;-79
2023/12/31 00:11:46;;;;;;;5.05;3.30;;;;;;;3.82;100.00;98391.13;5088795;28;20035;-78
2023/12/31 00:14:11;;;;;;;9.52;3.47;;;;;;;3.79;100.00;98389.63;5063587;28;20064;-78
2023/12/31 00:16:36;;;;;;;5.57;2.80;;;;;;;3.60;100.00;98369.41;5068767;28;20030;-78
2023/12/31 00:19:02;;;;;;;7.70;3.38;;;;;;;3.49;100.00;98356.41;5058256;28;20028;-81
2023/12/31 00:21:27;;;;;;;7.82;3.20;;;;;;;3.42;100.00;98360.75;5059233;28;20052;-76
2023/12/31 00:23:52;;;;;;;6.85;3.17;;;;;;;3.43;100.00;98362.41;5059290;28;20028;-78
2023/12/31 00:26:18;;;;;;;7.57;3.70;;;;;;;3.50;100.00;98360.75;5066435;28;20074;-77
2023/12/31 00:28:43;;;;;;;7.88;3.42;;;;;;;3.43;100.00;98351.72;5063998;28;20028;-77
2023/12/31 00:31:08;;;;;;;5.47;2.92;;;;;;;3.48;100.00;98346.69;5063521;28;20186;-77
2023/12/31 00:33:33;;;;;;;5.78;3.40;;;;;;;3.42;100.00;98332.16;5064805;28;20111;-78
2023/12/31 00:36:00;;;;;;;5.90;3.05;;;;;;;3.51;100.00;98349.88;5058836;28;20405;-78
2023/12/31 00:38:26;;;;;;;9.32;3.75;;;;;;;3.32;100.00;98320.00;5084445;28;20028;-77
2023/12/31 00:40:52;;;;;;;7.22;3.67;;;;;;;3.39;100.00;98323.66;5046189;28;20040;-77
2023/12/31 00:43:17;;;;;;;6.47;2.97;;;;;;;3.35;100.00;98320.47;5039893;28;20131;-78
2023/12/31 00:45:43;;;;;;;12.88;3.85;;;;;;;3.32;100.00;98315.47;5056843;28;20025;-77
2023/12/31 00:48:08;;;;;;;6.35;3.65;;;;;;;3.39;100.00;98326.34;5061138;28;20062;-77
2023/12/31 00:50:34;;;;;;;6.68;4.00;;;;;;;3.32;100.00;98314.63;5066012;28;20050;-78
2023/12/31 00:53:00;;;;;;;6.95;4.15;;;;;;;3.15;100.00;98305.81;5059178;28;20031;-78
2023/12/31 00:55:25;;;;;;;8.48;4.15;;;;;;;3.11;100.00;98316.00;5069393;28;20024;-78
2023/12/31 00:57:50;;;;;;;7.72;3.72;;;;;;;3.06;100.00;98313.81;5068616;28;20488;-77
2023/12/31 01:00:16;;;;;;;5.60;3.55;;;;;;;3.08;100.00;98327.84;5057989;28;20112;-79
2023/12/31 01:02:41;;;;;;;8.15;4.22;;;;;;;2.88;100.00;98310.47;5062569;28;20028;-78
2023/12/31 01:05:07;;;;;;;9.00;3.17;;;;;;;2.97;100.00;98314.00;5067652;28;20505;-78
2023/12/31 01:07:32;;;;;;;4.68;2.58;;;;;;;3.12;100.00;98300.78;5066859;28;20020;-78
2023/12/31 01:09:58;;;;;;;6.95;3.72;;;;;;;3.24;100.00;98294.91;5069057;28;20031;-77
2023/12/31 01:12:23;;;;;;;8.25;3.60;;;;;;;3.33;100.00;98292.22;5071853;28;20024;-77
2023/12/31 01:14:48;;;;;;;7.97;3.72;;;;;;;3.39;100.00;98286.22;5061356;28;20039;-76
2023/12/31 01:17:14;;;;;;;7.40;3.75;;;;;;;3.26;100.00;98276.88;5054552;28;20078;-76
2023/12/31 01:19:39;;;;;;;8.43;4.15;;;;;;;3.24;100.00;98294.09;5072420;28;20103;-77
2023/12/31 01:22:04;;;;;;;7.40;3.80;;;;;;;2.91;100.00;98258.53;5079023;28;20027;-77
2023/12/31 01:24:30;;;;;;;6.65;3.60;;;;;;;2.99;100.00;98295.97;5081351;28;20031;-76
2023/12/31 01:26:55;;;;;;;6.78;3.60;;;;;;;2.88;100.00;98272.25;5060528;28;20028;-77
2023/12/31 01:29:20;;;;;;;7.22;3.70;;;;;;;2.89;100.00;98244.53;5069257;28;20047;-77
2023/12/31 01:31:46;;;;;;;6.72;3.45;;;;;;;3.06;100.00;98272.91;5062657;28;20030;-78
2023/12/31 01:34:11;;;;;;;6.45;3.45;;;;;;;3.12;100.00;98264.22;5057978;28;20051;-77
2023/12/31 01:36:38;;;;;;;6.32;2.92;;;;;;;3.22;100.00;98246.16;5057016;28;20045;-77
2023/12/31 01:39:03;;;;;;;8.60;3.33;;;;;;;3.10;100.00;98227.97;5066897;28;20495;-77
2023/12/31 01:41:29;;;;;;;5.63;2.80;;;;;;;3.28;100.00;98250.00;5051702;28;20024;-78
2023/12/31 01:44:03;;;;;;;6.15;2.70;;;;;;;3.35;100.00;98263.50;5057272;28;20082;-78
2023/12/31 01:46:30;;;;;;;6.20;2.55;;;;;;;3.42;100.00;98276.00;5045849;28;20039;-78
2023/12/31 01:48:56;;;;;;;6.70;2.50;;;;;;;3.33;100.00;98250.31;5057477;28;20358;-77
2023/12/31 01:51:26;;;;;;;5.30;2.60;;;;;;;3.51;100.00;98253.59;5065555;28;20035;-77
2023/12/31 01:53:52;;;;;;;4.28;2.10;;;;;;;3.56;100.00;98223.66;5071738;28;20028;-78
2023/12/31 01:56:19;;;;;;;4.50;2.47;;;;;;;3.67;100.00;98217.94;5054794;28;20082;-78
2023/12/31 01:58:46;;;;;;;4.32;2.15;;;;;;;3.59;100.00;98206.41;5054194;28;20033;-78
2023/12/31 02:01:11;;;;;;;5.07;2.42;;;;;;;3.54;100.00;98201.63;5056870;28;20505;-78
2023/12/31 02:03:36;;;;;;;3.13;2.00;;;;;;;3.42;100.00;98190.44;5063139;28;20082;-78
2023/12/31 02:06:02;;;;;;;10.25;2.35;;;;;;;3.54;100.00;98196.25;5065846;28;20131;-77
2023/12/31 02:08:28;;;;;;;7.15;2.47;;;;;;;3.67;100.00;98209.09;5057228;28;20389;-78
2023/12/31 02:10:53;;;;;;;5.03;2.40;;;;;;;3.36;100.00;98168.94;5066189;28;20456;-79
2023/12/31 02:13:19;;;;;;;4.93;2.47;;;;;;;3.50;100.00;98202.94;5054647;28;20024;-79
2023/12/31 02:15:44;;;;;;;4.68;2.55;;;;;;;3.46;100.00;98201.66;5061877;28;20021;-79
2023/12/31 02:18:09;;;;;;;4.80;2.45;;;;;;;3.28;100.00;98194.69;5071139;28;20032;-78
2023/12/31 02:20:35;;;;;;;5.15;2.50;;;;;;;3.27;100.00;98208.19;5080232;28;20024;-78
2023/12/31 02:23:00;;;;;;;5.03;2.38;;;;;;;3.09;100.00;98160.31;5072153;28;20027;-79
2023/12/31 02:25:29;;;;;;;5.68;2.15;;;;;;;3.49;100.00;98185.25;5055284;28;20032;-76
2023/12/31 02:27:55;;;;;;;3.97;2.10;;;;;;;3.45;100.00;98167.88;5054199;28;20640;-76
2023/12/31 02:30:25;;;;;;;4.85;2.53;;;;;;;3.34;100.00;98154.91;5070817;28;20061;-79
2023/12/31 02:32:50;;;;;;;5.18;2.22;;;;;;;3.50;100.00;98165.50;5062154;28;20099;-76
2023/12/31 02:35:16;;;;;;;4.28;2.20;;;;;;;3.58;100.00;98154.78;5050866;28;20112;-77
2023/12/31 02:37:41;;;;;;;4.03;1.83;;;;;;;3.60;100.00;98155.44;5064109;28;20428;-77
2023/12/31 02:40:07;;;;;;;4.30;2.38;;;;;;;3.68;100.00;98147.38;5069276;28;20551;-77
2023/12/31 02:42:32;;;;;;;4.32;2.00;;;;;;;3.86;100.00;98147.09;5080497;28;20485;-77
2023/12/31 02:44:58;;;;;;;4.10;2.00;;;;;;;3.74;100.00;98125.25;5056799;28;20024;-76
2023/12/31 02:47:23;;;;;;;4.10;2.10;;;;;;;3.76;100.00;98134.97;5054046;28;20099;-77
2023/12/31 02:49:48;;;;;;;4.78;1.80;;;;;;;3.82;100.00;98151.13;5042724;28;20016;-78
2023/12/31 02:52:15;;;;;;;6.03;2.15;;;;;;;3.73;100.00;98128.94;5064223;28;20086;-79
2023/12/31 02:54:40;;;;;;;3.72;2.00;;;;;;;3.69;100.00;98113.41;5064173;28;20029;-79
2023/12/31 02:57:07;;;;;;;2.83;1.40;;;;;;;3.63;100.00;98098.91;5060586;28;20097;-78
2023/12/31 02:59:33;;;;;;;2.92;1.67;;;;;;;3.77;100.00;98091.13;5065620;28;20058;-78
2023/12/31 03:01:59;;;;;;;4.85;2.00;;;;;;;4.09;100.00;98112.31;5069096;28;20555;-77
2023/12/31 03:04:24;;;;;;;3.60;1.90;;;;;;;4.04;100.00;98085.25;5076758;28;20112;-77
2023/12/31 03:06:51;;;;;;;4.18;2.00;;;;;;;4.18;100.00;98068.41;5061887;28;20029;-77
2023/12/31 03:09:18;;;;;;;3.22;1.73;;;;;;;4.26;100.00;98064.81;5059158;28;20123;-76
2023/12/31 03:11:43;;;;;;;6.80;2.53;;;;;;;4.25;100.00;98055.13;5057222;28;20024;-77
2023/12/31 03:14:09;;;;;;;3.20;1.73;;;;;;;4.51;100.00;98081.50;5078096;28;20077;-77
2023/12/31 03:16:35;;;;;;;3.75;1.83;;;;;;;4.45;100.00;98052.75;5067720;28;20059;-77
2023/12/31 03:19:00;;;;;;;4.15;1.60;;;;;;;4.49;100.00;98059.41;5056976;28;20621;-77
2023/12/31 03:21:25;;;;;;;4.95;1.70;;;;;;;4.48;100.00;98046.19;5064447;28;20028;-76
2023/12/31 03:23:51;;;;;;;3.30;1.73;;;;;;;4.57;100.00;98053.16;5069294;28;20481;-77
2023/12/31 03:26:16;;;;;;;2.50;1.60;;;;;;;4.27;100.00;98007.59;5059560;28;20039;-77
2023/12/31 03:28:41;;;;;;;6.82;2.00;;;;;;;4.38;100.00;98017.03;5058057;28;20036;-78
2023/12/31 03:31:09;;;;;;;3.72;1.75;;;;;;;4.49;100.00;98029.13;5063350;28;20055;-77
2023/12/31 03:33:34;;;;;;;3.90;1.55;;;;;;;4.40;100.00;98012.28;5060730;28;20024;-77
2023/12/31 03:35:59;;;;;;;2.65;1.40;;;;;;;4.47;100.00;98007.88;5055750;28;20044;-77
2023/12/31 03:38:25;;;;;;;3.88;1.25;;;;;;;4.55;100.00;98002.41;5064662;28;20481;-78
2023/12/31 03:40:50;;;;;;;3.85;1.63;;;;;;;4.66;100.00;98021.72;5064656;28;20016;-77
2023/12/31 03:43:15;;;;;;;3.45;1.67;;;;;;;4.68;100.00;98028.56;5056376;28;20020;-77
2023/12/31 03:45:41;;;;;;;4.18;1.63;;;;;;;4.74;100.00;98033.22;5056475;28;20032;-77
2023/12/31 03:48:06;;;;;;;4.78;1.67;;;;;;;4.73;100.00;98018.13;5075872;28;20020;-78
2023/12/31 03:50:32;;;;;;;2.95;1.40;;;;;;;4.82;100.00;98006.31;5055789;28;20025;-78
2023/12/31 03:52:57;;;;;;;7.10;1.50;;;;;;;4.82;100.00;98002.78;5064408;28;20028;-78
2023/12/31 03:55:23;;;;;;;3.13;1.40;;;;;;;4.81;100.00;97983.19;5057967;28;20024;-78
2023/12/31 03:57:48;;;;;;;2.83;1.27;;;;;;;4.80;100.00;97980.72;5057302;28;20020;-77
2023/12/31 04:00:14;;;;;;;2.85;1.33;;;;;;;4.92;100.00;97989.91;5071174;28;20123;-77
2023/12/31 04:02:39;;;;;;;3.67;1.73;;;;;;;4.80;100.00;97953.91;5060066;28;20039;-77
2023/12/31 04:05:05;;;;;;;2.92;1.40;;;;;;;4.89;100.00;97973.38;5087387;28;20386;-77
2023/12/31 04:07:30;;;;;;;2.33;1.17;;;;;;;4.91;100.00;97977.53;5089059;28;20032;-77
2023/12/31 04:09:56;;;;;;;2.75;1.58;;;;;;;4.96;100.00;97977.81;5075079;28;20051;-77
2023/12/31 04:12:22;;;;;;;3.72;1.50;;;;;;;4.72;100.00;97943.31;5055891;28;20025;-77
2023/12/31 04:14:47;;;;;;;2.53;1.42;;;;;;;4.80;100.00;97956.59;5082521;28;20031;-78
2023/12/31 04:17:12;;;;;;;3.10;1.58;;;;;;;4.94;100.00;97974.47;5069747;28;20027;-77
2023/12/31 04:19:38;;;;;;;2.17;1.33;;;;;;;4.91;100.00;97950.75;5059883;28;20036;-77
2023/12/31 04:22:03;;;;;;;3.28;1.50;;;;;;;4.92;100.00;97944.34;5068856;28;20587;-78
2023/12/31 04:24:28;;;;;;;4.63;1.55;;;;;;;4.84;100.00;97939.94;5060806;28;20474;-76
2023/12/31 04:26:55;;;;;;;2.58;1.45;;;;;;;4.71;100.00;97937.09;5083536;28;20149;-77
2023/12/31 04:29:20;;;;;;;3.72;1.77;;;;;;;4.56;100.00;97915.69;5082051;28;20063;-78
2023/12/31 04:31:47;;;;;;;3.05;1.40;;;;;;;4.61;100.00;97912.44;5067056;28;20492;-77
2023/12/31 04:34:13;;;;;;;2.40;1.30;;;;;;;4.83;100.00;97938.28;5059573;28;20115;-77
2023/12/31 04:36:43;;;;;;;3.67;1.42;;;;;;;4.76;100.00;97923.97;5061501;28;20186;-77
2023/12/31 04:39:09;;;;;;;3.75;1.55;;;;;;;4.66;100.00;97899.31;5056187;28;20051;-77
2023/12/31 04:41:34;;;;;;;3.85;1.45;;;;;;;4.64;100.00;97908.56;5063063;28;20054;-77
2023/12/31 04:44:00;;;;;;;2.33;1.20;;;;;;;4.57;100.00;97912.00;5063776;28;20028;-78
2023/12/31 04:46:25;;;;;;;2.70;1.50;;;;;;;4.57;100.00;97920.03;5060316;28;20455;-78
2023/12/31 04:48:50;;;;;;;5.15;1.77;;;;;;;4.49;100.00;97912.09;5066975;28;20020;-78
2023/12/31 04:51:26;;;;;;;3.47;1.52;;;;;;;4.56;100.00;97928.28;5069158;28;20020;-77
2023/12/31 04:53:52;;;;;;;3.90;1.67;;;;;;;4.60;100.00;97916.97;5074932;28;20058;-77
2023/12/31 04:56:22;;;;;;;2.20;1.30;;;;;;;4.61;100.00;97924.00;5056843;28;20016;-77
2023/12/31 04:58:56;;;;;;;3.40;2.08;;;;;;;4.53;100.00;97905.38;5055238;28;20036;-77
2023/12/31 05:01:22;;;;;;;2.80;1.42;;;;;;;4.66;100.00;97919.91;5065085;28;20443;-76
2023/12/31 05:03:49;;;;;;;5.25;1.30;;;;;;;4.69;100.00;97915.03;5053124;28;20490;-77
2023/12/31 05:06:15;;;;;;;4.82;1.42;;;;;;;4.63;100.00;97901.53;5071915;28;20077;-77
2023/12/31 05:08:44;;;;;;;3.33;1.50;;;;;;;4.66;100.00;97895.81;5079929;28;20016;-77
2023/12/31 05:11:10;;;;;;;;;;;;;;;4.84;100.00;97906.94;5060503;28;20094;-76
2023/12/31 05:13:37;;;;;;;3.63;1.48;;;;;;;4.73;100.00;97889.50;5060043;28;20353;-77
2023/12/31 05:16:03;;;;;;;2.35;1.50;;;;;;;4.61;100.00;97891.88;5062741;28;20032;-77
2023/12/31 05:18:28;;;;;;;4.75;1.60;;;;;;;4.55;100.00;97895.28;5066214;28;20020;-76
2023/12/31 05:20:54;;;;;;;5.18;1.58;;;;;;;4.43;100.00;97888.75;5057593;28;20021;-77
2023/12/31 05:23:19;;;;;;;2.40;1.35;;;;;;;4.38;100.00;97881.28;5077398;28;20038;-76
2023/12/31 05:25:45;;;;;;;3.00;1.35;;;;;;;4.27;100.00;97875.53;5059251;28;20107;-77
2023/12/31 05:28:10;;;;;;;5.22;1.52;;;;;;;4.22;100.00;97888.66;5074593;28;20024;-78
2023/12/31 05:30:35;;;;;;;3.83;1.75;;;;;;;4.11;100.00;97885.44;5067035;28;20037;-77
2023/12/31 05:33:01;;;;;;;4.40;1.80;;;;;;;3.76;100.00;97852.19;5092965;28;20028;-78
2023/12/31 05:35:26;;;;;;;2.35;1.40;;;;;;;3.97;100.00;97888.13;5054426;28;20177;-78
2023/12/31 05:37:51;;;;;;;2.85;1.55;;;;;;;4.08;100.00;97899.19;5054173;28;20024;-78
2023/12/31 05:40:18;;;;;;;2.17;1.27;;;;;;;3.88;100.00;97836.53;5075374;28;20389;-77
2023/12/31 05:42:43;;;;;;;4.32;1.30;;;;;;;4.28;100.00;97861.16;5065464;28;20023;-77
2023/12/31 05:45:08;;;;;;;5.13;1.30;;;;;;;4.36;100.00;97856.50;5074795;28;20039;-76
2023/12/31 05:47:34;;;;;;;1.48;0.80;;;;;;;4.54;100.00;97863.34;5064393;28;20023;-78
2023/12/31 05:49:59;;;;;;;1.95;1.10;;;;;;;4.40;100.00;97856.97;5059120;28;20473;-77
2023/12/31 05:52:24;;;;;;;1.73;1.15;;;;;;;4.39;100.00;97852.63;5073480;28;20024;-78
2023/12/31 05:54:50;;;;;;;2.72;1.42;;;;;;;4.27;100.00;97849.63;5059968;28;20060;-78
2023/12/31 05:57:15;;;;;;;1.98;1.17;;;;;;;4.03;100.00;97813.25;5072215;28;20489;-78
2023/12/31 05:59:40;;;;;;;3.90;1.50;;;;;;;4.04;100.00;97820.28;5090858;28;20508;-77
2023/12/31 06:02:07;;;;;;;2.13;1.25;;;;;;;3.89;100.00;97812.25;5067058;28;20028;-78
2023/12/31 06:04:32;;;;;;;3.03;1.20;;;;;;;3.95;100.00;97837.44;5065114;28;20386;-78
2023/12/31 06:06:58;;;;;;;2.42;1.48;;;;;;;3.71;100.00;97823.31;5080410;28;20099;-78
2023/12/31 06:09:23;;;;;;;2.55;1.42;;;;;;;3.88;100.00;97855.28;5080858;28;20036;-78
2023/12/31 06:11:48;;;;;;;3.72;1.40;;;;;;;3.92;100.00;97845.84;5071607;28;20135;-78
2023/12/31 06:14:14;;;;;;;3.40;1.45;;;;;;;3.83;100.00;97836.25;5077006;28;20067;-76
2023/12/31 06:16:39;;;;;;;2.70;1.30;;;;;;;3.67;100.00;97816.69;5067303;28;20029;-78
2023/12/31 06:19:04;;;;;;;3.13;1.58;;;;;;;3.79;100.00;97830.44;5073182;28;20028;-78
2023/12/31 06:21:29;;;;;;;4.82;1.42;;;;;;;3.92;100.00;97843.16;5058197;28;20119;-78
2023/12/31 06:23:55;;;;;;;2.47;1.45;;;;;;;3.83;100.00;97841.63;5057995;28;20480;-78
2023/12/31 06:26:20;;;;;;;2.08;1.30;;;;;;;3.91;100.00;97841.53;5060443;28;20523;-78
2023/12/31 06:28:45;;;;;;;4.40;1.45;;;;;;;4.08;100.00;97828.75;5064693;28;20047;-77
2023/12/31 06:31:11;;;;;;;2.45;1.40;;;;;;;4.15;100.00;97830.50;5060670;28;20481;-77
2023/12/31 06:33:36;;;;;;;4.00;1.40;;;;;;;3.95;100.00;97808.81;5061676;28;20525;-78
2023/12/31 06:36:02;;;;;;;2.92;1.63;;;;;;;4.06;100.00;97826.28;5061341;28;20028;-78
2023/12/31 06:38:28;;;;;;;3.63;1.85;;;;;;;3.94;100.00;97822.41;5077228;28;20048;-77
2023/12/31 06:40:53;;;;;;;3.10;1.60;;;;;;;4.10;100.00;97840.94;5058198;28;20433;-77
2023/12/31 06:43:18;;;;;;;2.85;1.67;;;;;;;3.99;100.00;97816.50;5063017;28;20028;-77
2023/12/31 06:45:44;;;;;;;2.90;1.60;;;;;;;3.94;100.00;97817.88;5064185;28;20024;-78
2023/12/31 06:48:09;;;;;;;2.85;1.60;;;;;;;4.02;100.00;97827.66;5069066;28;20028;-81
2023/12/31 06:50:35;;;;;;;2.97;1.40;;;;;;;4.15;100.00;97848.44;5064336;28;20486;-88
2023/12/31 06:53:00;;;;;;;2.28;1.33;;;;;;;4.16;100.00;97855.44;5060300;28;20033;-89
2023/12/31 06:55:26;;;;;;;3.00;1.33;;;;;;;4.04;100.00;97857.75;5067092;28;20024;-87
2023/12/31 06:57:51;;;;;;;4.25;1.67;;;;;;;4.16;100.00;97861.59;5060754;28;20024;-84
2023/12/31 07:00:17;;;;;;;2.42;1.40;;;;;;;4.03;100.00;97845.38;5070257;28;20114;-87
2023/12/31 07:02:43;;;;;;;2.35;1.40;;;;;;;4.03;100.00;97834.66;5062451;28;20020;-83
2023/12/31 07:05:09;;;;;;;3.17;1.60;;;;;;;4.26;100.00;97849.78;5063884;28;20077;-85
2023/12/31 07:07:34;;;;;;;3.28;2.05;;;;;;;4.49;100.00;97853.19;5060149;28;20062;-85
2023/12/31 07:10:00;;;;;;;2.67;1.55;;;;;;;4.56;100.00;97839.88;5058865;28;20024;-87
2023/12/31 07:12:25;;;;;;;4.05;1.67;;;;;;;4.59;100.00;97837.63;5060439;28;20028;-87
2023/12/31 07:14:50;;;;;;;2.67;1.80;;;;;;;4.52;100.00;97825.19;5060838;28;20366;-89
2023/12/31 07:17:16;;;;;;;6.75;1.85;;;;;;;4.69;100.00;97844.53;5058491;28;20020;-83
2023/12/31 07:19:41;;;;;;;4.53;2.47;;;;;;;4.76;100.00;97832.84;5066281;28;20471;-79
2023/12/31 07:22:06;;;;;;;4.32;2.40;;;;;;;4.75;100.00;97831.22;5081386;28;20043;-82
2023/12/31 07:24:35;;;;;;;7.30;2.40;;;;;;;4.67;100.00;97825.97;5081229;28;20025;-87
2023/12/31 07:27:00;;;;;;;3.65;2.10;;;;;;;4.82;100.00;97844.66;5081186;28;20043;-83
2023/12/31 07:29:25;;;;;;;3.67;1.70;;;;;;;4.70;100.00;97833.63;5074291;28;20032;-85
2023/12/31 07:31:51;;;;;;;4.20;2.42;;;;;;;4.79;100.00;97819.09;5069611;28;20024;-86
2023/12/31 07:34:16;;;;;;;4.13;2.13;;;;;;;4.98;100.00;97825.66;5071956;28;20080;-86
2023/12/31 07:36:41;;;;;;;6.82;2.65;;;;;;;5.17;100.00;97868.94;5071828;28;20040;-82
2023/12/31 07:39:07;;;;;;;4.88;2.80;;;;;;;5.02;100.00;97820.75;5067289;28;20085;-83
2023/12/31 07:41:32;;;;;;;5.30;2.17;;;;;;;5.18;100.00;97855.31;5064116;28;20033;-84
2023/12/31 07:43:58;;;;;;;4.28;2.17;;;;;;;5.24;100.00;97851.06;5060964;28;20043;-83
2023/12/31 07:46:24;;;;;;;3.72;1.70;;;;;;;5.19;100.00;97826.69;5065532;28;20537;-84
2023/12/31 07:48:51;;;;;;;3.45;1.80;;;;;;;5.39;100.00;97851.78;5050186;28;20033;-84
2023/12/31 07:51:17;;;;;;;4.07;1.90;;;;;;;5.59;100.00;97851.16;5081933;28;20024;-83
2023/12/31 07:53:42;;;;;;;3.20;1.70;;;;;;;5.42;100.00;97824.63;5072879;28;20020;-83
2023/12/31 07:56:08;;;;;;;4.72;1.85;;;;;;;5.74;100.00;97854.56;5057047;28;20024;-84
2023/12/31 07:58:34;;;;;;;5.30;1.75;;;;;;;5.69;100.00;97838.22;5065171;28;20370;-74
2023/12/31 08:01:02;;;;;;;3.30;1.80;;;;;;;5.76;100.00;97839.06;5058566;28;20024;-75
2023/12/31 08:03:28;;;;;;;3.42;1.60;;;;;;;5.91;100.00;97850.53;5081841;28;20053;-75
2023/12/31 08:05:53;;;;;;;2.95;1.65;;;;;;;6.05;100.00;97856.00;5076632;28;20035;-82
2023/12/31 08:08:18;;;;;;;3.00;1.70;;;;;;;6.20;100.00;97831.72;5059619;28;20024;-83
2023/12/31 08:10:44;;;;;;;2.25;1.27;;;;;;;6.32;100.00;97806.78;5072602;28;20523;-75
2023/12/31 08:13:10;;;;;;;2.75;1.48;;;;;;;6.62;100.00;97817.22;5065740;28;20032;-76
2023/12/31 08:15:35;;;;;;;4.07;1.50;;;;;;;6.58;100.00;97784.53;5073437;28;20020;-76
2023/12/31 08:18:02;;;;;;;2.63;1.20;;;;;;;6.90;100.00;97798.25;5072509;28;20659;-75
2023/12/31 08:20:28;;;;;;;1.98;1.15;;;;;;;7.00;100.00;97800.53;5065292;28;20024;-76
2023/12/31 08:22:53;;;;;;;3.97;1.40;;;;;;;6.90;100.00;97774.06;5074017;28;20025;-76
2023/12/31 08:25:19;;;;;;;3.88;1.20;;;;;;;7.06;100.00;97772.00;5071423;28;20040;-77
2023/12/31 08:27:45;;;;;;;2.67;1.30;;;;;;;7.34;100.00;97807.59;5065231;28;20047;-77
2023/12/31 08:30:10;;;;;;;3.03;1.33;;;;;;;7.39;100.00;97798.91;5069286;28;20401;-80
2023/12/31 08:32:36;;;;;;;2.75;1.00;;;;;;;7.21;100.00;97769.94;5063761;28;20040;-80
2023/12/31 08:35:01;;;;;;;2.70;1.30;;;;;;;7.59;100.00;97805.09;5062465;28;20052;-87
2023/12/31 08:37:27;;;;;;;2.63;1.17;;;;;;;7.62;100.00;97803.84;5061318;28;20592;-86
2023/12/31 08:39:52;;;;;;;3.97;1.20;;;;;;;7.50;100.00;97789.38;5072613;28;20099;-82
2023/12/31 08:42:17;;;;;;;1.33;1.00;;;;;;;7.68;100.00;97806.53;5065820;28;20042;-82
2023/12/31 08:44:43;;;;;;;3.70;1.00;;;;;;;7.52;100.00;97798.06;5076194;28;20447;-82
2023/12/31 08:47:09;;;;;;;1.55;0.88;;;;;;;7.57;100.00;97800.94;5079462;28;20036;-82
2023/12/31 08:49:34;;;;;;;1.58;0.90;;;;;;;7.51;100.00;97775.69;5060204;28;20025;-88
2023/12/31 08:52:00;;;;;;;2.10;1.00;;;;;;;7.62;100.00;97780.47;5067127;28;20092;-86
2023/12/31 08:54:25;;;;;;;2.22;0.90;;;;;;;7.75;100.00;97778.75;5094316;28;20040;-88
2023/12/31 08:56:51;;;;;;;2.45;0.93;;;;;;;7.91;100.00;97775.59;5079728;28;20020;-82
2023/12/31 08:59:17;;;;;;;2.13;1.00;;;;;;;8.02;100.00;97787.63;5054921;28;20648;-84
2023/12/31 09:01:42;;;;;;;2.15;1.20;;;;;;;8.06;100.00;97778.88;5062265;28;20504;-84
2023/12/31 09:04:09;;;;;;;2.20;1.30;;;;;;;7.94;100.00;97747.44;5056521;28;20059;-82
2023/12/31 09:06:34;;;;;;;3.05;1.30;;;;;;;8.11;100.00;97770.16;5061525;28;20390;-84
2023/12/31 09:08:59;;;;;;;2.58;1.02;;;;;;;7.88;100.00;97755.31;5055738;28;20024;-77
2023/12/31 09:11:25;;;;;;;2.03;1.10;;;;;;;7.84;100.00;97751.41;5059756;28;20020;-84
2023/12/31 09:13:50;;;;;;;2.08;1.00;;;;;;;7.93;100.00;97745.78;5065742;28;20024;-76
2023/12/31 09:16:15;;;;;;;2.25;1.10;;;;;;;7.82;100.00;97729.25;5073110;28;20098;-81
2023/12/31 09:18:41;;;;;;;2.65;1.20;;;;;;;8.03;100.00;97747.00;5075829;23;20051;-62
2023/12/31 09:21:07;;;;;;;1.67;1.10;;;;;;;8.18;100.00;97765.59;5069584;28;20040;-63
2023/12/31 09:23:32;;;;;;;2.55;1.30;;;;;;;8.27;100.00;97755.38;5071870;28;20073;-63
2023/12/31 09:25:58;;;;;;;2.13;1.05;;;;;;;8.34;100.00;97756.19;5068166;28;20020;-63
2023/12/31 09:28:23;;;;;;;3.60;0.95;;;;;;;8.47;100.00;97764.25;5068081;28;20046;-63
2023/12/31 09:30:50;;;;;;;2.65;1.10;;;;;;;8.62;100.00;97746.94;5076516;28;20035;-63
2023/12/31 09:33:15;;;;;;;2.53;1.45;;;;;;;8.80;100.00;97763.19;5075257;28;20036;-62
2023/12/31 09:35:41;;;;;;;2.03;1.20;;;;;;;8.91;100.00;97754.44;5064557;28;20024;-62
2023/12/31 09:38:06;;;;;;;2.83;1.10;;;;;;;8.85;100.00;97757.97;5072139;28;20032;-62
2023/12/31 09:40:32;;;;;;;2.90;1.30;;;;;;;8.80;100.00;97757.00;5071778;28;20089;-62
2023/12/31 09:43:01;;;;;;;3.55;1.40;;;;;;;8.76;100.00;97746.66;5071366;28;20079;-62
2023/12/31 09:45:28;;;;;;;;;;;;;;;8.86;100.00;97750.75;5070026;28;22423;-62
2023/12/31 09:47:56;;;;;;;3.53;1.33;;;;;;;8.87;100.00;97744.28;5072032;28;19944;-62
2023/12/31 09:50:23;;;;;;;1.73;1.07;;;;;;;9.06;100.00;97742.47;5070070;28;20044;-62
2023/12/31 09:52:49;;;;;;;1.77;0.93;;;;;;;9.19;100.00;97737.78;5069660;28;20047;-62
2023/12/31 09:55:18;;;;;;;1.63;1.10;;;;;;;9.26;100.00;97729.66;5064615;28;20032;-62
2023/12/31 09:57:46;;;;;;;2.70;1.23;;;;;;;9.29;100.00;97723.00;5076743;28;20119;-62
2023/12/31 10:00:12;;;;;;;3.00;1.55;;;;;;;9.24;100.00;97712.03;5071426;28;20020;-62
2023/12/31 10:02:38;;;;;;;2.42;1.42;;;;;;;9.34;100.00;97720.44;5072367;28;20016;-62
2023/12/31 10:05:05;;;;;;;2.72;1.42;;;;;;;9.68;100.00;97704.75;5066702;28;20043;-61
2023/12/31 10:07:31;;;;;;;2.85;1.20;;;;;;;10.20;100.00;97694.34;5070820;28;20356;-60
2023/12/31 10:09:57;;;;;;;2.70;1.08;;;;;;;10.60;100.00;97685.72;5072084;28;20031;-60
2023/12/31 10:12:23;;;;;;;1.65;1.17;;;;;;;10.70;100.00;97688.69;5073546;28;20135;-60
2023/12/31 10:14:50;;;;;;;2.47;1.13;;;;;;;10.61;100.00;97690.06;5069495;28;20515;-60
2023/12/31 10:17:16;;;;;;;2.20;1.10;;;;;;;10.40;100.00;97667.06;5072649;28;20484;-61
2023/12/31 10:19:41;;;;;;;5.32;1.02;;;;;;;10.19;100.00;97641.34;5078857;28;20021;-62
2023/12/31 10:22:14;;;;;;;1.35;0.98;;;;;;;10.15;100.00;97621.25;5072339;28;20460;-61
2023/12/31 10:24:41;;;;;;;2.42;1.23;;;;;;;10.25;100.00;97619.63;5070625;28;20570;-62
2023/12/31 10:27:08;;;;;;;1.58;1.05;;;;;;;10.24;100.00;97636.91;5072725;28;20028;-62
2023/12/31 10:29:35;;;;;;;1.83;1.25;;;;;;;9.98;100.00;97635.41;5069377;28;20349;-64
2023/12/31 10:32:04;;;;;;;1.50;1.10;;;;;;;9.85;100.00;97631.00;5073032;28;20028;-62
2023/12/31 10:34:30;;;;;;;2.95;1.48;;;;;;;9.74;100.00;97623.63;5070473;28;20077;-62
2023/12/31 10:37:05;;;;;;;3.00;1.35;;;;;;;9.60;100.00;97617.56;5072890;28;20032;-62
2023/12/31 10:39:35;;;;;;;3.00;1.25;;;;;;;9.58;100.00;97619.66;5071039;28;20044;-62
2023/12/31 10:42:04;;;;;;;1.60;1.20;;;;;;;9.53;100.00;97624.09;5068912;28;20210;-61
2023/12/31 10:44:34;;;;;;;3.15;1.20;;;;;;;9.51;100.00;97621.66;5062105;28;20032;-62
2023/12/31 10:47:09;;;;;;;2.08;1.20;;;;;;;9.51;100.00;97608.16;5072145;28;20094;-62
2023/12/31 10:49:38;;;;;;;2.22;1.17;;;;;;;9.57;100.00;97606.41;5074099;28;20111;-61
2023/12/31 10:52:05;;;;;;;4.28;1.10;;;;;;;9.70;100.00;97606.25;5070042;28;20391;-62
2023/12/31 10:54:42;;;;;;;3.03;1.40;;;;;;;9.84;100.00;97596.91;5069699;28;20044;-62
2023/12/31 10:57:09;;;;;;;2.75;1.58;;;;;;;9.88;100.00;97590.00;5071161;28;20472;-62
2023/12/31 10:59:36;;;;;;;2.00;1.40;;;;;;;9.93;100.00;97594.72;5068935;28;20032;-61
2023/12/31 11:02:04;;;;;;;3.58;1.40;;;;;;;9.87;100.00;97584.81;5074803;28;20404;-61
2023/12/31 11:04:30;;;;;;;3.85;1.80;;;;;;;9.69;100.00;97579.44;5073923;28;20112;-63
2023/12/31 11:06:56;;;;;;;2.83;1.65;;;;;;;9.59;100.00;97578.13;5075181;28;20078;-62
2023/12/31 11:09:21;;;;;;;3.10;1.85;;;;;;;9.52;100.00;97563.06;5070276;28;20029;-62
2023/12/31 11:11:49;;;;;;;2.95;1.50;;;;;;;9.55;100.00;97573.41;5074273;28;20056;-61
2023/12/31 11:14:16;;;;;;;4.85;1.33;;;;;;;9.69;100.00;97561.38;5070809;28;20082;-55
2023/12/31 11:17:29;;;;;;;3.35;1.83;;;;;;;9.88;100.00;97559.47;5069773;28;20036;-48
2023/12/31 11:20:09;;;;;;;3.80;1.38;;;;;;;9.90;100.00;97549.22;5037823;28;20036;-55
2023/12/31 11:22:56;;;;;;;3.13;1.85;;;;;;;9.76;100.00;97535.09;5075396;28;20024;-51
2023/12/31 11:25:22;;;;;;;3.35;1.75;;;;;;;9.72;100.00;97536.63;5070857;28;20098;-51
2023/12/31 11:27:53;;;;;;;4.80;1.83;;;;;;;9.58;100.00;97549.47;5070820;28;20118;-50
2023/12/31 11:30:58;;;;;;;3.58;1.67;;;;;;;9.51;100.00;97550.59;5070366;28;20020;-51